Time;durP1;ratioP1;P1;durP2;ratioP2;P2;SDS_P1;SDS_P2;PMS_P1;PMS_P2;Temp;Humidity;BMP_temperature;BMP_pressure;BME280_temperature;BME280_humidity;BME280_pressure;Samples;Min_cycle;Max_cycle;Signal;HPM_P1;HPM_P2
2022/01/22 00:01:12;;;;;;;18.75;3.78;;;6.40;99.90;;;;;;5022832;28;20155;-93
2022/01/22 00:03:38;;;;;;;19.73;4.65;;;6.50;99.90;;;;;;5023558;28;20041;-93
2022/01/22 00:06:04;;;;;;;19.65;4.32;;;6.50;99.90;;;;;;5024134;28;20686;-93
2022/01/22 00:08:29;;;;;;;20.48;3.70;;;6.50;99.90;;;;;;5030755;28;20124;-91
2022/01/22 00:10:56;;;;;;;19.60;3.72;;;6.50;99.90;;;;;;5031170;28;20038;-92
2022/01/22 00:16:05;;;;;;;18.27;4.00;;;6.50;99.90;;;;;;5030904;28;20046;-94
2022/01/22 00:18:31;;;;;;;18.13;4.55;;;6.60;99.90;;;;;;5030367;28;20041;-93
2022/01/22 00:20:56;;;;;;;20.52;3.83;;;6.60;99.90;;;;;;5014691;28;20125;-94
2022/01/22 00:23:26;;;;;;;17.13;4.22;;;6.60;99.90;;;;;;5013944;28;20061;-93
2022/01/22 00:25:52;;;;;;;21.42;3.53;;;6.60;99.90;;;;;;5014335;28;20052;-94
2022/01/22 00:28:18;;;;;;;22.00;4.05;;;6.60;99.90;;;;;;5030464;28;20092;-93
2022/01/22 00:30:43;;;;;;;20.40;3.78;;;6.60;99.90;;;;;;5013874;28;20037;-92
2022/01/22 00:33:09;;;;;;;14.57;3.65;;;6.70;99.90;;;;;;5013693;28;20045;-93
2022/01/22 00:35:35;;;;;;;15.45;3.38;;;6.60;99.90;;;;;;5014344;28;20491;-93
2022/01/22 00:38:01;;;;;;;23.85;3.95;;;6.70;99.90;;;;;;5019274;28;20037;-92
2022/01/22 00:40:26;;;;;;;17.85;3.45;;;6.70;99.90;;;;;;5024691;28;20405;-93
2022/01/22 00:42:52;;;;;;;16.35;3.78;;;6.70;99.90;;;;;;5030840;28;20037;-92
2022/01/22 00:45:19;;;;;;;16.92;3.63;;;6.70;99.90;;;;;;5033764;28;20533;-93
2022/01/22 00:47:46;;;;;;;13.73;3.38;;;6.70;99.90;;;;;;5050144;28;20091;-93
2022/01/22 00:50:15;;;;;;;18.60;4.35;;;6.70;99.90;;;;;;5050200;28;20037;-94
2022/01/22 00:52:42;;;;;;;12.60;2.95;;;6.70;99.90;;;;;;5049811;28;20053;-94
2022/01/22 00:55:09;;;;;;;12.98;2.75;;;6.70;99.90;;;;;;5037928;28;20041;-93
2022/01/22 00:57:35;;;;;;;16.08;3.17;;;6.70;99.90;;;;;;5037140;28;20120;-92
2022/01/22 01:00:00;;;;;;;13.18;2.80;;;6.70;99.90;;;;;;5037064;28;20676;-93
2022/01/22 01:02:26;;;;;;;18.60;3.10;;;6.70;99.90;;;;;;5036924;28;20040;-92
2022/01/22 01:04:52;;;;;;;20.13;2.92;;;6.70;99.90;;;;;;5053629;28;20387;-93
2022/01/22 01:07:17;;;;;;;14.15;2.72;;;6.70;99.90;;;;;;5053721;28;20041;-92
2022/01/22 01:09:43;;;;;;;11.75;2.67;;;6.80;99.90;;;;;;5053342;28;20040;-93
2022/01/22 01:12:11;;;;;;;14.82;2.42;;;6.80;99.90;;;;;;5053136;28;20044;-92
2022/01/22 01:14:43;;;;;;;17.20;2.60;;;6.80;99.90;;;;;;5053426;28;20045;-94
2022/01/22 01:17:35;;;;;;;14.15;2.83;;;6.80;99.90;;;;;;5053572;28;20037;-94
2022/01/22 01:34:09;;;;;;;20.08;3.47;;;6.90;99.90;;;;;;5035564;28;20556;-93
2022/01/22 01:36:35;;;;;;;15.35;2.83;;;6.90;99.90;;;;;;5050201;28;20045;-92
2022/01/22 01:39:09;;;;;;;13.80;3.20;;;6.90;99.90;;;;;;5053342;28;20048;-92
2022/01/22 01:44:10;;;;;;;18.02;3.15;;;7.00;99.90;;;;;;5052922;28;20041;-95
2022/01/22 01:46:35;;;;;;;15.50;3.03;;;7.00;99.90;;;;;;5036296;28;20044;-93
2022/01/22 01:49:03;;;;;;;15.98;2.78;;;7.00;99.90;;;;;;5052998;28;20040;-92
2022/01/22 01:51:31;;;;;;;15.43;2.85;;;7.00;99.90;;;;;;5052406;28;20127;-94
2022/01/22 01:59:11;;;;;;;14.93;2.40;;;7.00;99.90;;;;;;5052694;28;20513;-93
2022/01/22 02:01:37;;;;;;;12.30;2.20;;;7.00;99.90;;;;;;5051950;28;20387;-92
2022/01/22 02:04:02;;;;;;;12.88;2.13;;;7.00;99.90;;;;;;5052376;28;20044;-94
2022/01/22 02:06:28;;;;;;;15.15;2.58;;;7.00;99.90;;;;;;5028495;28;20499;-93
2022/01/22 02:08:54;;;;;;;14.18;2.35;;;7.00;99.90;;;;;;5032673;28;20053;-94
2022/01/22 02:11:23;;;;;;;12.25;2.45;;;7.00;99.90;;;;;;5016111;28;20045;-93
2022/01/22 02:14:05;;;;;;;13.25;2.45;;;7.00;99.90;;;;;;5015921;28;20037;-94
2022/01/22 02:24:54;;;;;;;13.23;2.83;;;7.10;99.90;;;;;;5032674;28;20045;-90
2022/01/22 02:27:20;;;;;;;9.60;2.28;;;7.10;99.90;;;;;;5015942;28;20128;-93
2022/01/22 02:29:46;;;;;;;14.18;2.60;;;7.10;99.90;;;;;;5015631;28;20139;-91
2022/01/22 02:34:57;;;;;;;10.60;2.15;;;7.20;99.90;;;;;;5032330;28;20136;-93
2022/01/22 02:37:25;;;;;;;12.40;2.67;;;7.20;99.90;;;;;;5015710;28;20075;-90
2022/01/22 02:40:06;;;;;;;10.88;2.85;;;7.20;99.90;;;;;;5015582;28;20129;-93
2022/01/22 02:42:34;;;;;;;11.48;2.40;;;7.20;99.90;;;;;;5015477;28;20037;-92
2022/01/22 02:45:01;;;;;;;13.30;2.58;;;7.20;99.90;;;;;;5031921;28;20046;-94
2022/01/22 02:47:26;;;;;;;11.25;2.70;;;7.20;99.90;;;;;;5016039;28;20091;-93
2022/01/22 02:49:52;;;;;;;14.00;2.88;;;7.30;99.90;;;;;;5015980;28;20418;-94
2022/01/22 02:52:19;;;;;;;12.73;2.60;;;7.30;99.90;;;;;;5015447;28;20052;-93
2022/01/22 02:54:46;;;;;;;11.52;2.78;;;7.30;99.90;;;;;;5015812;28;20438;-92
2022/01/22 02:57:13;;;;;;;12.50;3.03;;;7.30;99.90;;;;;;5029803;28;20202;-94
2022/01/22 02:59:40;;;;;;;11.00;2.50;;;7.30;99.90;;;;;;5011174;28;20037;-94
2022/01/22 03:02:08;;;;;;;14.57;2.72;;;7.30;99.90;;;;;;5031713;28;20114;-94
2022/01/22 03:04:33;;;;;;;12.30;2.60;;;7.40;99.90;;;;;;5016401;28;20091;-93
2022/01/22 03:06:59;;;;;;;11.77;2.20;;;7.40;99.90;;;;;;5041719;28;20110;-93
2022/01/22 03:09:29;;;;;;;9.80;2.00;;;7.40;99.90;;;;;;5051789;28;20534;-93
2022/01/22 03:17:32;;;;;;;12.55;2.35;;;7.40;99.90;;;;;;5051120;28;20045;-93
2022/01/22 03:20:18;;;;;;;9.07;1.73;;;7.40;99.90;;;;;;5051043;28;20426;-93
2022/01/22 03:27:56;;;;;;;9.35;2.08;;;7.50;99.90;;;;;;5039513;28;20053;-93
2022/01/22 03:30:22;;;;;;;9.73;2.20;;;7.50;99.90;;;;;;5014596;28;20045;-93
2022/01/22 03:32:51;;;;;;;10.55;1.95;;;7.50;99.90;;;;;;5014831;28;20045;-93
2022/01/22 03:37:53;;;;;;;7.75;1.90;;;7.50;99.90;;;;;;5031188;28;20045;-93
2022/01/22 03:40:21;;;;;;;8.55;2.25;;;7.50;99.90;;;;;;5031312;28;20214;-93
2022/01/22 03:42:47;;;;;;;10.95;1.90;;;7.50;99.90;;;;;;5030738;28;20041;-92
2022/01/22 03:45:13;;;;;;;10.00;1.90;;;7.60;99.90;;;;;;5014504;28;20047;-93
2022/01/22 03:47:39;;;;;;;8.55;2.38;;;7.60;99.90;;;;;;5014591;28;20418;-93
2022/01/22 03:50:06;;;;;;;10.43;2.00;;;7.60;99.90;;;;;;5014454;28;20041;-94
2022/01/22 03:52:31;;;;;;;8.73;1.95;;;7.60;99.90;;;;;;5013996;28;20041;-93
2022/01/22 03:54:57;;;;;;;11.75;2.25;;;7.60;99.90;;;;;;5031208;28;20068;-93
2022/01/22 03:57:23;;;;;;;10.60;1.88;;;7.60;99.90;;;;;;5014348;28;20155;-93
2022/01/22 03:59:52;;;;;;;10.15;2.15;;;7.60;99.90;;;;;;5014296;28;20033;-93
2022/01/22 04:05:04;;;;;;;8.27;2.15;;;7.60;99.90;;;;;;5031130;28;20049;-93
2022/01/22 04:10:17;;;;;;;6.82;2.00;;;7.60;99.90;;;;;;5030839;28;20505;-94
2022/01/22 04:12:51;;;;;;;9.43;2.00;;;7.60;99.90;;;;;;5014465;28;20387;-93
2022/01/22 04:15:21;;;;;;;8.30;2.08;;;7.60;99.90;;;;;;5014186;28;20052;-93
2022/01/22 04:24:50;;;;;;;7.50;2.05;;;7.60;99.90;;;;;;5014309;28;20060;-94
2022/01/22 04:28:41;;;;;;;8.43;2.50;;;7.60;99.90;;;;;;5034059;28;20056;-93
2022/01/22 04:31:07;;;;;;;7.10;1.52;;;7.60;99.90;;;;;;5034762;28;20041;-93
2022/01/22 04:33:32;;;;;;;8.70;1.88;;;7.60;99.90;;;;;;5018020;28;20495;-93
2022/01/22 04:35:58;;;;;;;6.47;1.80;;;7.60;99.90;;;;;;5018021;28;20041;-93
2022/01/22 04:38:23;;;;;;;7.60;1.77;;;7.60;99.90;;;;;;5017911;28;20080;-93
2022/01/22 04:40:49;;;;;;;6.63;1.80;;;7.60;99.90;;;;;;5017681;28;20449;-94
2022/01/22 04:43:15;;;;;;;6.13;1.50;;;7.60;99.90;;;;;;5017730;28;20049;-93
2022/01/22 04:56:57;;;;;;;7.22;1.67;;;7.70;99.90;;;;;;4994000;28;20146;-92
2022/01/22 04:59:22;;;;;;;6.20;1.55;;;7.70;99.90;;;;;;5016165;28;20082;-94
2022/01/22 05:01:48;;;;;;;6.65;1.70;;;7.70;99.90;;;;;;4999613;28;20038;-93
2022/01/22 05:04:13;;;;;;;7.88;1.77;;;7.70;99.90;;;;;;4999982;28;20124;-93
2022/01/22 05:06:39;;;;;;;7.00;1.90;;;7.70;99.90;;;;;;5006567;28;20547;-93
2022/01/22 05:09:05;;;;;;;6.38;1.65;;;7.70;99.90;;;;;;5019413;28;20036;-93
2022/01/22 05:11:30;;;;;;;9.30;2.13;;;7.60;99.90;;;;;;5018775;28;20045;-92
2022/01/22 05:13:56;;;;;;;7.18;1.70;;;7.70;99.90;;;;;;5019737;28;20044;-93
2022/01/22 05:16:22;;;;;;;8.93;2.22;;;7.60;99.90;;;;;;5035585;28;20045;-92
2022/01/22 05:18:56;;;;;;;7.60;2.05;;;7.70;99.90;;;;;;5019311;28;20045;-92
2022/01/22 05:21:23;;;;;;;9.00;1.92;;;7.70;99.90;;;;;;5019382;28;20041;-93
2022/01/22 05:23:50;;;;;;;9.30;2.58;;;7.70;99.90;;;;;;5035329;28;20482;-93
2022/01/22 05:27:27;;;;;;;7.50;1.70;;;7.70;99.90;;;;;;5036571;28;20049;-92
2022/01/22 05:29:20;;;;;;;10.75;1.80;;;7.70;99.90;;;;;;5048785;28;20055;-93
2022/01/22 05:37:00;;;;;;;5.72;1.75;;;7.70;99.90;;;;;;5053241;28;20045;-93
2022/01/22 05:39:29;;;;;;;5.80;1.73;;;7.70;99.90;;;;;;5036008;28;20041;-93
2022/01/22 05:41:56;;;;;;;7.30;1.77;;;7.70;99.90;;;;;;5036258;28;20040;-93
2022/01/22 05:44:21;;;;;;;7.38;1.83;;;7.70;99.90;;;;;;5036519;28;20073;-93
2022/01/22 05:46:48;;;;;;;8.38;1.85;;;7.70;99.90;;;;;;5036310;28;20522;-93
2022/01/22 05:49:14;;;;;;;8.40;1.70;;;7.70;99.90;;;;;;5036317;28;20112;-93
2022/01/22 05:51:42;;;;;;;7.15;1.95;;;7.70;99.90;;;;;;5052645;28;20120;-93
2022/01/22 05:54:33;;;;;;;7.07;1.58;;;7.70;99.90;;;;;;5052825;28;20094;-92
2022/01/22 05:59:44;;;;;;;6.60;1.67;;;7.60;99.90;;;;;;5052674;28;20045;-92
2022/01/22 06:02:15;;;;;;;5.88;1.50;;;7.60;99.90;;;;;;5035911;28;20549;-93
2022/01/22 06:04:41;;;;;;;6.38;1.58;;;7.60;99.90;;;;;;5036270;28;20044;-92
2022/01/22 06:07:08;;;;;;;6.72;1.60;;;7.60;99.90;;;;;;5035259;28;20129;-94
2022/01/22 06:09:37;;;;;;;6.20;1.58;;;7.60;99.90;;;;;;5053009;28;20040;-93
2022/01/22 06:14:31;;;;;;;5.88;1.50;;;7.70;99.90;;;;;;5052538;28;20045;-93
2022/01/22 06:16:57;;;;;;;5.97;1.52;;;7.70;99.90;;;;;;5036154;28;20037;-93
2022/01/22 06:19:22;;;;;;;5.32;1.60;;;7.70;99.90;;;;;;5052605;28;20033;-93
2022/01/22 06:21:51;;;;;;;4.32;1.27;;;7.70;99.90;;;;;;5051985;28;20043;-93
2022/01/22 06:24:17;;;;;;;5.05;1.40;;;7.70;99.90;;;;;;5052202;28;20037;-93
2022/01/22 06:26:42;;;;;;;6.15;1.38;;;7.70;99.90;;;;;;5052492;28;20036;-93
2022/01/22 06:29:08;;;;;;;6.32;1.42;;;7.70;99.90;;;;;;5035827;28;20049;-93
2022/01/22 06:31:34;;;;;;;7.65;1.80;;;7.70;99.90;;;;;;5035332;28;20044;-93
2022/01/22 06:34:00;;;;;;;4.55;1.52;;;7.70;99.90;;;;;;5035837;28;20565;-94
2022/01/22 06:36:26;;;;;;;5.45;1.50;;;7.70;99.90;;;;;;5035541;28;20127;-93
2022/01/22 06:38:57;;;;;;;6.10;1.55;;;7.70;99.90;;;;;;5035623;28;20037;-93
2022/01/22 06:44:07;;;;;;;5.68;1.58;;;7.70;99.90;;;;;;5052408;28;20132;-93
2022/01/22 06:46:33;;;;;;;6.15;1.70;;;7.70;99.90;;;;;;5052041;28;20045;-93
2022/01/22 06:48:59;;;;;;;4.72;1.60;;;7.70;99.90;;;;;;5035469;28;20043;-93
2022/01/22 06:51:26;;;;;;;4.65;1.40;;;7.70;99.90;;;;;;5033886;28;20045;-93
2022/01/22 06:53:53;;;;;;;4.38;1.52;;;7.70;99.90;;;;;;5034869;28;20072;-91
2022/01/22 06:56:21;;;;;;;6.80;1.80;;;7.70;99.90;;;;;;5051774;28;20037;-92
2022/01/22 06:58:49;;;;;;;7.43;2.05;;;7.70;99.90;;;;;;5051533;28;20533;-90
2022/01/22 07:01:15;;;;;;;7.15;2.05;;;7.70;99.90;;;;;;5051499;28;20044;-93
2022/01/22 07:03:41;;;;;;;9.88;2.17;;;7.70;99.90;;;;;;5051100;28;20033;-93
2022/01/22 07:06:07;;;;;;;8.75;2.42;;;7.70;99.90;;;;;;5050941;28;20048;-93
2022/01/22 07:08:33;;;;;;;7.97;2.38;;;7.70;99.90;;;;;;5051574;28;20053;-94
2022/01/22 07:10:58;;;;;;;8.75;2.50;;;7.70;99.90;;;;;;5051546;28;20464;-92
2022/01/22 07:13:24;;;;;;;12.20;2.78;;;7.70;99.90;;;;;;5051290;28;20037;-93
2022/01/22 07:15:49;;;;;;;8.80;2.60;;;7.70;99.90;;;;;;5034885;28;20076;-93
2022/01/22 07:18:15;;;;;;;13.15;2.80;;;7.70;99.90;;;;;;5051456;28;20082;-93
2022/01/22 07:20:43;;;;;;;7.45;1.95;;;7.70;99.90;;;;;;5051653;28;20037;-93
2022/01/22 07:23:18;;;;;;;8.73;2.60;;;7.70;99.90;;;;;;5034428;28;20124;-93
2022/01/22 07:25:45;;;;;;;6.97;2.08;;;7.70;99.90;;;;;;5051498;28;20089;-93
2022/01/22 07:28:11;;;;;;;9.30;2.70;;;7.70;99.90;;;;;;5034714;28;20044;-93
2022/01/22 07:30:38;;;;;;;7.20;2.28;;;7.70;99.90;;;;;;5050975;28;20040;-92
2022/01/22 07:33:04;;;;;;;8.68;2.17;;;7.70;99.90;;;;;;5034246;28;20076;-93
2022/01/22 07:35:33;;;;;;;8.98;2.70;;;7.70;99.90;;;;;;5051029;28;20083;-93
2022/01/22 07:38:00;;;;;;;8.52;2.33;;;7.70;99.90;;;;;;5034232;28;20064;-91
2022/01/22 07:40:25;;;;;;;8.48;2.63;;;7.70;99.90;;;;;;5051001;28;20041;-92
2022/01/22 07:42:51;;;;;;;7.50;2.20;;;7.70;99.90;;;;;;5033728;28;20048;-91
2022/01/22 07:45:16;;;;;;;11.20;2.40;;;7.70;99.90;;;;;;5050744;28;20037;-91
2022/01/22 07:47:42;;;;;;;7.53;2.30;;;7.70;99.90;;;;;;5034188;28;20051;-93
2022/01/22 07:50:09;;;;;;;6.68;2.10;;;7.70;99.90;;;;;;5034095;28;20032;-90
2022/01/22 07:52:34;;;;;;;7.57;2.28;;;7.60;99.90;;;;;;5050384;28;20158;-92
2022/01/22 07:55:00;;;;;;;4.70;1.80;;;7.60;99.90;;;;;;5050905;28;20055;-93
2022/01/22 07:57:26;;;;;;;7.05;2.03;;;7.60;99.90;;;;;;5034160;28;20040;-93
2022/01/22 07:59:51;;;;;;;5.88;2.10;;;7.70;99.90;;;;;;5050664;28;20048;-92
2022/01/22 08:02:17;;;;;;;6.72;1.98;;;7.70;99.90;;;;;;5050208;28;20029;-93
2022/01/22 08:04:42;;;;;;;6.82;1.98;;;7.70;99.90;;;;;;5034061;28;20063;-92
2022/01/22 08:07:08;;;;;;;6.88;2.03;;;7.70;99.90;;;;;;5049915;28;20072;-93
2022/01/22 08:09:34;;;;;;;6.40;2.15;;;7.70;99.90;;;;;;5050341;28;20029;-91
2022/01/22 08:12:00;;;;;;;6.68;2.05;;;7.70;99.90;;;;;;5033707;28;20041;-93
2022/01/22 08:14:27;;;;;;;5.20;1.70;;;7.70;99.90;;;;;;5034494;28;20090;-93
2022/01/22 08:16:53;;;;;;;6.75;1.77;;;7.70;99.90;;;;;;5034472;28;20037;-92
2022/01/22 08:19:19;;;;;;;8.45;1.67;;;7.70;99.90;;;;;;5051023;28;20556;-93
2022/01/22 08:21:46;;;;;;;5.43;1.35;;;7.70;99.90;;;;;;5049887;28;20059;-93
2022/01/22 08:24:14;;;;;;;3.58;1.25;;;7.70;99.90;;;;;;5033998;28;20123;-93
2022/01/22 08:26:46;;;;;;;3.85;1.30;;;7.70;99.90;;;;;;5034905;28;20033;-93
2022/01/22 08:29:12;;;;;;;4.43;1.50;;;7.70;99.90;;;;;;5034599;28;20086;-93
2022/01/22 08:31:49;;;;;;;3.95;1.33;;;7.70;99.90;;;;;;5050705;28;20041;-93
2022/01/22 08:36:59;;;;;;;3.92;1.20;;;7.70;99.90;;;;;;5050955;28;20053;-93
2022/01/22 08:39:25;;;;;;;4.63;1.55;;;7.80;99.90;;;;;;5051039;28;20037;-93
2022/01/22 08:41:51;;;;;;;4.50;1.45;;;7.80;99.90;;;;;;5050674;28;20040;-93
2022/01/22 08:44:17;;;;;;;3.97;1.30;;;7.80;99.90;;;;;;5033655;28;20052;-90
2022/01/22 08:46:43;;;;;;;5.28;1.38;;;7.80;99.90;;;;;;5033693;28;20040;-94
2022/01/22 08:49:08;;;;;;;6.05;1.40;;;7.80;99.90;;;;;;5033854;28;20044;-93
2022/01/22 08:51:38;;;;;;;5.53;1.40;;;7.80;99.90;;;;;;5050673;28;20033;-93
2022/01/22 08:54:03;;;;;;;4.40;1.33;;;7.80;99.90;;;;;;5050744;28;20041;-93
2022/01/22 08:56:29;;;;;;;6.45;1.70;;;7.80;99.90;;;;;;5050946;28;20379;-93
2022/01/22 08:58:56;;;;;;;4.60;1.38;;;7.80;99.90;;;;;;5033942;28;20126;-93
2022/01/22 09:01:22;;;;;;;5.22;1.55;;;7.90;99.90;;;;;;5034064;28;20617;-93
2022/01/22 09:03:49;;;;;;;6.18;1.63;;;7.90;99.90;;;;;;5050356;28;20264;-93
2022/01/22 09:06:17;;;;;;;5.80;1.45;;;7.90;99.90;;;;;;5032840;28;20410;-94
2022/01/22 09:08:45;;;;;;;4.60;1.40;;;8.00;99.90;;;;;;5033835;28;20487;-93
2022/01/22 09:11:10;;;;;;;9.90;3.55;;;8.00;99.90;;;;;;5033994;28;20048;-94
2022/01/22 09:13:36;;;;;;;9.40;3.05;;;8.10;99.90;;;;;;5033991;28;20037;-93
2022/01/22 09:16:02;;;;;;;6.88;2.55;;;8.10;99.90;;;;;;5053786;28;20517;-93
2022/01/22 09:18:27;;;;;;;6.97;1.92;;;8.10;99.90;;;;;;5054022;28;20044;-94
2022/01/22 09:21:04;;;;;;;5.47;1.60;;;8.20;99.90;;;;;;5021438;28;20079;-93
2022/01/22 09:23:31;;;;;;;5.30;1.30;;;8.20;99.90;;;;;;5016435;28;20034;-93
2022/01/22 09:25:57;;;;;;;7.45;1.95;;;8.20;99.90;;;;;;5033848;28;20056;-94
2022/01/22 09:28:24;;;;;;;8.27;1.95;;;8.20;99.90;;;;;;5046027;28;20410;-94
2022/01/22 09:30:50;;;;;;;8.25;1.77;;;8.20;99.90;;;;;;5025522;28;20033;-93
2022/01/22 09:33:15;;;;;;;7.13;1.60;;;8.10;99.90;;;;;;5042710;28;20044;-94
2022/01/22 09:35:41;;;;;;;7.20;1.67;;;8.10;99.90;;;;;;5043600;28;20045;-93
2022/01/22 09:38:07;;;;;;;6.63;1.58;;;8.10;99.90;;;;;;5024448;28;20041;-94
2022/01/22 09:40:33;;;;;;;7.38;1.98;;;8.10;99.90;;;;;;5033376;28;20124;-93
2022/01/22 09:42:59;;;;;;;5.68;1.50;;;8.10;99.90;;;;;;5022406;28;20115;-94
2022/01/22 09:45:30;;;;;;;6.97;1.60;;;8.10;99.90;;;;;;5036623;28;20482;-94
2022/01/22 09:47:58;;;;;;;8.63;1.83;;;8.10;99.90;;;;;;5037056;28;20521;-94
2022/01/22 09:50:26;;;;;;;8.20;1.92;;;8.20;99.90;;;;;;5053316;28;20052;-92
2022/01/22 09:52:52;;;;;;;8.40;1.95;;;8.10;99.90;;;;;;5052604;28;20121;-91
2022/01/22 09:55:18;;;;;;;7.95;2.10;;;8.20;99.90;;;;;;5052667;28;20067;-93
2022/01/22 09:57:45;;;;;;;8.00;2.15;;;8.10;99.90;;;;;;5052815;28;20040;-92
2022/01/22 10:00:13;;;;;;;8.93;2.42;;;8.10;99.90;;;;;;5052240;28;20520;-93
2022/01/22 10:02:46;;;;;;;9.05;2.65;;;8.00;99.90;;;;;;5034748;28;20033;-91
2022/01/22 10:05:35;;;;;;;8.98;2.47;;;7.90;99.90;;;;;;5052334;28;20045;-91
2022/01/22 10:08:31;;;;;;;7.03;1.95;;;7.80;99.90;;;;;;5052104;28;20390;-92
2022/01/22 10:10:58;;;;;;;9.20;2.15;;;7.70;99.90;;;;;;5035724;28;20095;-92
2022/01/22 10:13:39;;;;;;;9.13;2.42;;;7.70;99.90;;;;;;5035478;28;20045;-92
2022/01/22 10:16:21;;;;;;;9.65;2.33;;;7.70;99.90;;;;;;5051997;28;20128;-91
2022/01/22 10:19:08;;;;;;;9.23;2.40;;;7.60;99.90;;;;;;5052195;28;20080;-92
2022/01/22 10:21:33;;;;;;;5.75;2.42;;;7.60;99.90;;;;;;5051686;28;20045;-92
2022/01/22 10:24:21;;;;;;;7.53;2.42;;;7.50;99.90;;;;;;5051844;28;20039;-91
2022/01/22 10:26:47;;;;;;;9.73;2.40;;;7.50;99.90;;;;;;5018571;28;20415;-92
2022/01/22 10:29:19;;;;;;;9.48;2.45;;;7.50;99.90;;;;;;5032415;28;20052;-91
2022/01/22 10:31:46;;;;;;;7.30;2.27;;;7.50;99.90;;;;;;5025945;28;20036;-91
2022/01/22 10:34:13;;;;;;;10.00;2.50;;;7.60;99.90;;;;;;5037315;28;20037;-91
2022/01/22 10:36:39;;;;;;;13.60;2.97;;;7.60;99.90;;;;;;5034680;28;20103;-91
2022/01/22 10:39:23;;;;;;;10.77;3.25;;;7.60;99.90;;;;;;5015796;28;20033;-92
2022/01/22 10:41:50;;;;;;;9.82;2.63;;;7.60;99.90;;;;;;5012920;28;20045;-92
2022/01/22 10:44:20;;;;;;;10.70;2.70;;;7.60;99.90;;;;;;5014537;28;20045;-92
2022/01/22 10:46:49;;;;;;;9.57;2.40;;;7.60;99.90;;;;;;5032732;28;20514;-91
2022/01/22 10:49:19;;;;;;;10.45;2.75;;;7.60;99.90;;;;;;5031379;28;20052;-91
2022/01/22 10:51:52;;;;;;;8.77;2.40;;;7.60;99.90;;;;;;5014674;28;20073;-91
2022/01/22 10:54:24;;;;;;;11.30;2.88;;;7.60;99.90;;;;;;5014819;28;20041;-92
2022/01/22 10:56:51;;;;;;;12.70;3.22;;;7.60;99.90;;;;;;5029821;28;20049;-91
2022/01/22 10:59:19;;;;;;;10.15;2.55;;;7.60;99.90;;;;;;5031413;28;20069;-91
2022/01/22 11:01:59;;;;;;;13.57;3.67;;;7.70;99.90;;;;;;5014008;28;20042;-91
2022/01/22 11:04:34;;;;;;;11.32;2.78;;;7.70;99.90;;;;;;5030664;28;20037;-91
2022/01/22 11:07:05;;;;;;;8.23;2.55;;;7.70;99.90;;;;;;5030400;28;20045;-91
2022/01/22 11:09:32;;;;;;;10.55;2.78;;;7.70;99.90;;;;;;5031564;28;20549;-93
2022/01/22 11:11:59;;;;;;;9.60;2.67;;;7.80;99.90;;;;;;5029184;28;20048;-91
2022/01/22 11:14:27;;;;;;;11.15;2.80;;;7.80;99.90;;;;;;5030033;28;20142;-91
2022/01/22 11:16:53;;;;;;;12.48;3.33;;;7.80;99.90;;;;;;5014220;28;20045;-91
2022/01/22 11:19:32;;;;;;;11.35;2.67;;;7.80;99.90;;;;;;5014995;28;20048;-92
2022/01/22 11:22:10;;;;;;;11.05;2.60;;;7.90;99.90;;;;;;5040996;28;20102;-92
2022/01/22 11:24:45;;;;;;;10.23;2.95;;;7.90;99.90;;;;;;5040401;28;20037;-94
2022/01/22 11:27:13;;;;;;;11.40;3.03;;;7.90;99.90;;;;;;5040328;28;20037;-91
2022/01/22 11:29:49;;;;;;;12.13;2.70;;;8.00;99.90;;;;;;5032429;28;20037;-91
2022/01/22 11:32:19;;;;;;;9.23;2.42;;;8.00;99.90;;;;;;5013814;28;20037;-93
2022/01/22 11:34:47;;;;;;;9.95;2.50;;;8.00;99.90;;;;;;5031237;28;20042;-92
2022/01/22 11:37:19;;;;;;;14.07;2.67;;;8.00;99.90;;;;;;5014256;28;20042;-93
2022/01/22 11:39:45;;;;;;;9.48;2.47;;;8.10;99.90;;;;;;5031101;28;20034;-94
2022/01/22 11:42:10;;;;;;;12.35;2.40;;;8.10;99.90;;;;;;5014563;28;20037;-92
2022/01/22 11:44:50;;;;;;;9.82;2.45;;;8.10;99.90;;;;;;5031539;28;20052;-93
2022/01/22 11:47:20;;;;;;;11.35;2.55;;;8.20;99.90;;;;;;5031330;28;20047;-93
2022/01/22 11:50:07;;;;;;;12.10;2.60;;;8.10;99.90;;;;;;5013352;28;20048;-91
2022/01/22 11:52:36;;;;;;;11.80;2.80;;;8.20;99.90;;;;;;5029623;28;20048;-92
2022/01/22 11:55:11;;;;;;;11.15;3.35;;;8.10;99.90;;;;;;5030491;28;20410;-93
2022/01/22 11:57:37;;;;;;;14.50;2.58;;;8.20;99.90;;;;;;5014141;28;20037;-92
2022/01/22 12:00:28;;;;;;;9.75;2.42;;;8.20;99.90;;;;;;5013888;28;20099;-92
2022/01/22 12:03:09;;;;;;;10.43;3.05;;;8.10;99.90;;;;;;5013836;28;20046;-92
2022/01/22 12:05:54;;;;;;;13.40;3.95;;;8.00;99.90;;;;;;5030476;28;20415;-92
2022/01/22 12:08:21;;;;;;;12.80;3.58;;;7.90;99.90;;;;;;5013785;28;20041;-91
2022/01/22 12:16:40;;;;;;;15.02;4.57;;;7.70;99.90;;;;;;5049778;28;20570;-91
2022/01/22 12:19:46;;;;;;;12.75;3.72;;;7.60;99.90;;;;;;5033450;28;20041;-92
2022/01/22 12:22:50;;;;;;;14.90;4.30;;;7.60;99.90;;;;;;5048545;28;20080;-91
2022/01/22 12:25:15;;;;;;;16.20;4.32;;;7.50;99.90;;;;;;4992937;28;20133;-92
2022/01/22 12:27:41;;;;;;;15.93;4.53;;;7.50;99.90;;;;;;4965398;28;20128;-91
2022/01/22 12:30:07;;;;;;;15.38;4.95;;;7.50;99.90;;;;;;4959979;28;20423;-91
2022/01/22 12:32:46;;;;;;;11.55;4.43;;;7.50;99.90;;;;;;4972996;28;20516;-93
2022/01/22 12:35:16;;;;;;;13.82;4.82;;;7.50;99.90;;;;;;4957255;28;20039;-92
2022/01/22 12:37:48;;;;;;;15.82;4.88;;;7.50;99.90;;;;;;4989595;28;20046;-92
2022/01/22 12:40:27;;;;;;;14.80;4.50;;;7.50;99.90;;;;;;4973247;28;20472;-92
2022/01/22 12:43:06;;;;;;;13.13;4.95;;;7.60;99.90;;;;;;4963363;28;20285;-92
2022/01/22 12:45:33;;;;;;;12.73;4.38;;;7.60;99.90;;;;;;4976192;28;20181;-91
2022/01/22 12:48:00;;;;;;;16.20;5.47;;;7.60;99.90;;;;;;4967098;28;20510;-92
2022/01/22 12:50:30;;;;;;;14.98;5.10;;;7.60;99.90;;;;;;5020564;28;20054;-92
2022/01/22 12:53:02;;;;;;;17.77;5.50;;;7.60;99.90;;;;;;4986207;28;20034;-92
2022/01/22 12:55:49;;;;;;;17.25;5.35;;;7.60;99.90;;;;;;5000158;28;20526;-91
2022/01/22 12:58:28;;;;;;;17.33;5.65;;;7.60;99.90;;;;;;5042522;28;20037;-92
2022/01/22 13:01:18;;;;;;;16.42;5.65;;;7.60;99.90;;;;;;5028814;28;20069;-91
2022/01/22 13:03:53;;;;;;;17.85;6.55;;;7.60;99.90;;;;;;5044814;28;20033;-91
2022/01/22 13:06:23;;;;;;;16.05;6.80;;;7.60;99.90;;;;;;5024944;28;20044;-91
2022/01/22 13:08:54;;;;;;;18.02;5.97;;;7.60;99.90;;;;;;5044246;28;20486;-92
2022/01/22 13:11:25;;;;;;;16.05;5.32;;;7.50;99.90;;;;;;5036970;28;20063;-90
2022/01/22 13:13:51;;;;;;;15.32;4.72;;;7.50;99.90;;;;;;5054153;28;20576;-92
2022/01/22 13:16:17;;;;;;;11.75;4.60;;;7.60;99.90;;;;;;5053345;28;20041;-91
2022/01/22 13:18:50;;;;;;;15.77;5.05;;;7.60;99.90;;;;;;5054291;28;20040;-91
2022/01/22 13:21:18;;;;;;;15.13;4.22;;;7.60;99.90;;;;;;5038292;28;20501;-93
2022/01/22 13:23:47;;;;;;;12.93;4.28;;;7.70;99.90;;;;;;5055274;28;20040;-94
2022/01/22 13:26:13;;;;;;;14.95;4.07;;;7.70;99.90;;;;;;5038054;28;20075;-94
2022/01/22 13:28:40;;;;;;;16.10;5.18;;;7.80;99.90;;;;;;5041317;28;20092;-94
2022/01/22 13:31:11;;;;;;;16.60;4.85;;;7.80;99.90;;;;;;5039401;28;20044;-94
2022/01/22 13:34:02;;;;;;;12.32;3.85;;;7.90;99.90;;;;;;5056582;28;20391;-94
2022/01/22 13:40:29;;;;;;;12.98;3.83;;;7.90;99.90;;;;;;5019219;28;20460;-94
2022/01/22 13:45:20;;;;;;;15.45;5.05;;;8.00;99.90;;;;;;5058463;28;20040;-94
2022/01/22 13:47:54;;;;;;;14.32;4.15;;;8.10;99.90;;;;;;5038965;28;20079;-90
2022/01/22 13:50:21;;;;;;;14.30;4.07;;;8.10;99.90;;;;;;5053807;28;20033;-89
2022/01/22 13:52:47;;;;;;;12.55;3.72;;;8.00;99.90;;;;;;5034178;28;20041;-91
2022/01/22 13:55:14;;;;;;;11.60;3.47;;;8.00;99.90;;;;;;5029691;28;20037;-93
2022/01/22 13:57:44;;;;;;;15.02;3.65;;;8.00;99.90;;;;;;5038001;28;20036;-91
2022/01/22 14:00:21;;;;;;;10.15;3.42;;;8.00;99.90;;;;;;5054504;28;20512;-93
2022/01/22 14:03:19;;;;;;;15.30;3.33;;;8.10;99.90;;;;;;5050905;28;20388;-94
2022/01/22 14:05:50;;;;;;;11.45;3.10;;;8.10;99.90;;;;;;5035461;28;20041;-93
2022/01/22 14:08:17;;;;;;;13.95;3.63;;;8.10;99.90;;;;;;5018084;28;20073;-92
2022/01/22 14:10:43;;;;;;;13.20;3.60;;;8.10;99.90;;;;;;5033502;28;20073;-94
2022/01/22 14:13:11;;;;;;;10.68;2.85;;;8.10;99.90;;;;;;5016524;28;20064;-93
2022/01/22 14:15:43;;;;;;;12.57;2.92;;;8.10;99.90;;;;;;5034650;28;20041;-93
2022/01/22 14:18:22;;;;;;;15.43;3.47;;;8.10;99.90;;;;;;5032116;28;20087;-93
2022/01/22 14:21:06;;;;;;;11.70;2.75;;;8.10;99.90;;;;;;5022178;28;20124;-93
2022/01/22 14:23:33;;;;;;;11.13;2.70;;;8.10;99.90;;;;;;5034672;28;20120;-93
2022/01/22 14:26:12;;;;;;;9.88;2.75;;;8.10;99.90;;;;;;5016641;28;20131;-92
2022/01/22 14:28:39;;;;;;;11.02;3.30;;;8.10;99.90;;;;;;5033527;28;20053;-92
2022/01/22 14:31:28;;;;;;;14.98;3.17;;;8.00;99.90;;;;;;5035079;28;20384;-92
2022/01/22 14:34:04;;;;;;;12.38;3.03;;;8.00;99.90;;;;;;5046909;28;20053;-92
2022/01/22 14:36:38;;;;;;;13.68;2.97;;;7.90;99.90;;;;;;5050871;28;20418;-91
2022/01/22 14:39:12;;;;;;;9.27;2.88;;;7.80;99.90;;;;;;5033906;28;20521;-90
2022/01/22 14:44:35;;;;;;;13.10;2.85;;;7.80;99.90;;;;;;5051893;28;20506;-92
2022/01/22 14:47:14;;;;;;;15.35;2.72;;;7.70;99.90;;;;;;5035299;28;20098;-93
2022/01/22 14:49:59;;;;;;;11.93;2.40;;;7.70;99.90;;;;;;5035614;28;20044;-93